createdAt,value
2022-11-23T00:00:34.389Z,96741.41
2022-11-23T00:03:05.400Z,96730.25
2022-11-23T00:05:35.969Z,96742.19
2022-11-23T00:08:05.383Z,96730.25
2022-11-23T00:10:34.584Z,96738.59
2022-11-23T00:13:03.895Z,96735.72
2022-11-23T00:15:35.612Z,96731.34
2022-11-23T00:18:06.146Z,96743.25
2022-11-23T00:20:35.252Z,96735.66
2022-11-23T00:23:04.226Z,96739.31
2022-11-23T00:25:33.343Z,96736.06
2022-11-23T00:28:02.415Z,96732.13
2022-11-23T00:30:31.641Z,96736.81
2022-11-23T00:33:01.016Z,96736.88
2022-11-23T00:35:34.697Z,96728.88
2022-11-23T00:38:03.848Z,96727.25
2022-11-23T00:40:32.875Z,96727.97
2022-11-23T00:43:04.852Z,96735.91
2022-11-23T00:45:33.939Z,96730.44
2022-11-23T00:48:03.039Z,96740.00
2022-11-23T00:50:32.602Z,96736.00
2022-11-23T00:53:03.004Z,96734.88
2022-11-23T00:55:32.170Z,96744.03
2022-11-23T00:58:01.225Z,96736.75
2022-11-23T01:00:30.481Z,96730.44
2022-11-23T01:02:59.547Z,96742.69
2022-11-23T01:05:30.262Z,96738.75
2022-11-23T01:08:04.230Z,96738.44
2022-11-23T01:10:34.535Z,96741.63
2022-11-23T01:13:03.660Z,96739.66
2022-11-23T01:15:32.734Z,96738.38
2022-11-23T01:18:01.831Z,96738.38
2022-11-23T01:20:33.415Z,96736.75
2022-11-23T01:23:04.750Z,96731.66
2022-11-23T01:25:37.626Z,96742.38
2022-11-23T01:28:07.183Z,96735.91
2022-11-23T01:30:36.553Z,96733.50
2022-11-23T01:33:06.083Z,96743.16
2022-11-23T01:35:35.143Z,96732.03
2022-11-23T01:38:05.673Z,96735.91
2022-11-23T01:40:42.630Z,96731.50
2022-11-23T01:43:17.357Z,96730.31
2022-11-23T01:45:58.817Z,96728.72
2022-11-23T01:48:33.538Z,96733.09
2022-11-23T01:51:06.520Z,96747.03
2022-11-23T01:53:39.917Z,96729.53
2022-11-23T01:56:12.149Z,96735.41
2022-11-23T01:58:48.864Z,96744.63
2022-11-23T02:01:18.079Z,96737.44
2022-11-23T02:03:50.199Z,96743.75
2022-11-23T02:06:21.488Z,96740.66
2022-11-23T02:08:53.706Z,96747.38
2022-11-23T02:11:22.787Z,96747.00
2022-11-23T02:13:54.619Z,96744.31
2022-11-23T02:16:24.875Z,96754.19
2022-11-23T02:18:55.862Z,96747.50
2022-11-23T02:21:25.476Z,96751.09
2022-11-23T02:24:04.995Z,96746.31
2022-11-23T02:26:37.340Z,96747.13
2022-11-23T02:29:13.159Z,96748.72
2022-11-23T02:31:42.323Z,96755.09
2022-11-23T02:34:11.424Z,96758.97
2022-11-23T02:36:43.511Z,96756.66
2022-11-23T02:39:15.550Z,96753.88
2022-11-23T02:41:49.191Z,96755.00
2022-11-23T02:44:38.480Z,96755.75
2022-11-23T02:47:10.149Z,96764.59
2022-11-23T02:49:42.657Z,96758.16
2022-11-23T02:52:11.756Z,96764.09
2022-11-23T02:54:40.855Z,96765.31
2022-11-23T02:57:11.907Z,96770.03
2022-11-23T02:59:42.922Z,96770.03
2022-11-23T03:02:12.277Z,96772.44
2022-11-23T03:04:41.419Z,96765.25
2022-11-23T03:07:10.553Z,96774.41
2022-11-23T03:09:41.323Z,96775.16
2022-11-23T03:12:12.665Z,96776.38
2022-11-23T03:14:41.717Z,96775.16
2022-11-23T03:17:11.038Z,96772.28
2022-11-23T03:19:43.388Z,96773.53
2022-11-23T03:22:13.943Z,96776.34
2022-11-23T03:24:43.090Z,96768.84
2022-11-23T03:27:18.842Z,96781.19
2022-11-23T03:29:49.115Z,96778.44
2022-11-23T03:32:22.165Z,96778.00
2022-11-23T03:34:55.875Z,96776.44
2022-11-23T03:37:25.414Z,96770.81
2022-11-23T03:39:55.316Z,96784.25
2022-11-23T03:42:25.722Z,96789.03
2022-11-23T03:44:54.920Z,96792.25
2022-11-23T03:47:24.075Z,96789.91
2022-11-23T03:49:53.377Z,96790.72
2022-11-23T03:52:22.468Z,96794.66
2022-11-23T03:54:51.537Z,96787.44
2022-11-23T03:57:20.611Z,96794.19
2022-11-23T03:59:51.544Z,96789.84
2022-11-23T04:02:21.285Z,96792.66
2022-11-23T04:05:01.254Z,96793.06
2022-11-23T04:07:49.441Z,96806.56
2022-11-23T04:10:20.238Z,96803.38
2022-11-23T04:13:04.349Z,96809.31
2022-11-23T04:15:35.035Z,96805.38
2022-11-23T04:18:05.519Z,96812.13
2022-11-23T04:20:34.614Z,96811.31
2022-11-23T04:23:03.684Z,96806.56
2022-11-23T04:25:33.104Z,96802.47
2022-11-23T04:28:02.323Z,96816.88
2022-11-23T04:30:32.227Z,96807.75
2022-11-23T04:33:02.696Z,96809.69
2022-11-23T04:35:32.691Z,96806.75
2022-11-23T04:38:02.527Z,96809.59
2022-11-23T04:40:34.610Z,96802.53
2022-11-23T04:43:06.580Z,96812.88
2022-11-23T04:45:40.617Z,96816.88
2022-11-23T04:48:17.451Z,96824.00
2022-11-23T04:50:47.030Z,96814.09
2022-11-23T04:53:22.849Z,96818.84
2022-11-23T04:55:52.544Z,96812.91
2022-11-23T04:58:21.751Z,96826.44
2022-11-23T05:00:56.647Z,96823.25
2022-11-23T05:03:27.164Z,96832.75
2022-11-23T05:05:59.585Z,96831.19
2022-11-23T05:08:34.471Z,96820.44
2022-11-23T05:11:19.942Z,96818.84
2022-11-23T05:13:50.724Z,96811.31
2022-11-23T05:16:20.029Z,96808.03
2022-11-23T05:18:50.854Z,96819.22
2022-11-23T05:21:19.895Z,96820.78
2022-11-23T05:23:49.621Z,96821.63
2022-11-23T05:26:20.919Z,96814.50
2022-11-23T05:28:51.020Z,96820.47
2022-11-23T05:31:20.658Z,96816.91
2022-11-23T05:33:51.650Z,96817.69
2022-11-23T05:36:29.811Z,96823.97
2022-11-23T05:38:59.345Z,96823.50
2022-11-23T05:41:33.249Z,96831.84
2022-11-23T05:44:04.728Z,96811.28
2022-11-23T05:46:33.866Z,96822.31
2022-11-23T05:49:04.861Z,96827.47
2022-11-23T05:51:38.831Z,96821.44
2022-11-23T05:54:08.430Z,96820.03
2022-11-23T05:56:48.128Z,96820.91
2022-11-23T05:59:22.879Z,96820.16
2022-11-23T06:01:59.958Z,96838.38
2022-11-23T06:04:34.702Z,96832.84
2022-11-23T06:07:04.387Z,96837.66
2022-11-23T06:09:46.313Z,96849.91
2022-11-23T06:12:15.441Z,96843.22
2022-11-23T06:14:44.466Z,96844.81
2022-11-23T06:17:15.396Z,96844.44
2022-11-23T06:19:52.286Z,96841.63
2022-11-23T06:22:21.356Z,96838.34
2022-11-23T06:24:58.177Z,96848.28
2022-11-23T06:27:41.179Z,96847.09
2022-11-23T06:30:21.888Z,96851.13
2022-11-23T06:32:51.198Z,96842.38
2022-11-23T06:35:23.849Z,96849.81
2022-11-23T06:37:54.733Z,96856.59
2022-11-23T06:40:25.228Z,96848.72
2022-11-23T06:43:00.292Z,96847.13
2022-11-23T06:45:47.591Z,96853.47
2022-11-23T06:48:18.501Z,96860.22
2022-11-23T06:50:51.316Z,96862.19
2022-11-23T06:53:22.759Z,96870.53
2022-11-23T06:56:00.956Z,96861.00
2022-11-23T06:58:32.235Z,96872.50
2022-11-23T07:01:05.024Z,96868.13
2022-11-23T07:03:39.779Z,96876.81
2022-11-23T07:06:20.940Z,96880.34
2022-11-23T07:08:52.023Z,96884.28
2022-11-23T07:11:50.046Z,96883.03
2022-11-23T07:14:19.696Z,96887.56
2022-11-23T07:16:51.770Z,96879.56
2022-11-23T07:19:21.341Z,96881.81
2022-11-23T07:21:54.276Z,96883.06
2022-11-23T07:24:23.553Z,96883.88
2022-11-23T07:26:52.648Z,96889.56
2022-11-23T07:29:22.207Z,96898.44
2022-11-23T07:31:51.554Z,96898.44
2022-11-23T07:34:22.356Z,96900.72
2022-11-23T07:36:51.419Z,96904.69
2022-11-23T07:39:32.247Z,96908.66
2022-11-23T07:42:31.622Z,96914.94
2022-11-23T07:45:00.938Z,96912.53
2022-11-23T07:47:30.071Z,96911.75
2022-11-23T07:49:59.135Z,96916.53
2022-11-23T07:52:28.344Z,96913.41
2022-11-23T07:55:00.265Z,96919.75
2022-11-23T07:57:30.038Z,96911.81
2022-11-23T07:59:59.147Z,96911.81
2022-11-23T08:02:28.365Z,96918.97
2022-11-23T08:04:57.492Z,96916.19
2022-11-23T08:07:26.650Z,96916.97
2022-11-23T08:09:55.831Z,96922.84
2022-11-23T08:12:26.383Z,96920.84
2022-11-23T08:14:55.430Z,96924.00
2022-11-23T08:17:24.669Z,96920.41
2022-11-23T08:19:53.831Z,96911.13
2022-11-23T08:22:23.662Z,96907.94
2022-11-23T08:24:52.676Z,96906.69
2022-11-23T08:27:21.971Z,96908.28
2022-11-23T08:29:52.378Z,96914.66
2022-11-23T08:32:21.438Z,96912.28
2022-11-23T08:34:50.372Z,96916.19
2022-11-23T08:37:19.509Z,96913.34
2022-11-23T08:39:48.513Z,96918.44
2022-11-23T08:42:17.608Z,96927.94
2022-11-23T08:44:46.997Z,96921.88
2022-11-23T08:47:17.377Z,96929.31
2022-11-23T08:49:46.497Z,96936.34
2022-11-23T08:52:16.117Z,96934.66
2022-11-23T08:54:45.200Z,96933.81
2022-11-23T08:57:14.206Z,96938.50
2022-11-23T08:59:43.337Z,96935.25
2022-11-23T09:02:14.531Z,96921.97
2022-11-23T09:04:44.940Z,96917.56
2022-11-23T09:07:14.043Z,96920.78
2022-11-23T09:09:43.151Z,96908.78
2022-11-23T09:12:12.786Z,96927.00
2022-11-23T09:14:41.909Z,96934.13
2022-11-23T09:17:11.139Z,96937.16
2022-11-23T09:19:40.155Z,96939.50
2022-11-23T09:22:10.853Z,96941.81
2022-11-23T09:24:40.044Z,96939.41
2022-11-23T09:27:09.063Z,96944.84
2022-11-23T09:29:38.264Z,96939.53
2022-11-23T09:32:07.390Z,96942.34
2022-11-23T09:34:36.503Z,96939.50
2022-11-23T09:37:05.719Z,96948.66
2022-11-23T09:39:36.160Z,96947.38
2022-11-23T09:42:35.038Z,96951.34
2022-11-23T09:45:18.966Z,96937.38
2022-11-23T09:48:07.220Z,96945.28
2022-11-23T09:50:48.308Z,96949.97
2022-11-23T09:53:22.715Z,96938.03
2022-11-23T09:55:57.179Z,96933.16
2022-11-23T09:58:35.823Z,96943.41
2022-11-23T10:01:09.187Z,96936.56
2022-11-23T10:03:46.965Z,96935.34
2022-11-23T10:06:25.458Z,96940.56
2022-11-23T10:09:13.545Z,96938.13
2022-11-23T10:12:08.771Z,96943.25
2022-11-23T10:14:54.490Z,96949.69
2022-11-23T10:17:44.693Z,96949.78
2022-11-23T10:20:35.171Z,96953.94
2022-11-23T10:23:09.470Z,96948.44
2022-11-23T10:25:46.607Z,96954.50
2022-11-23T10:28:19.964Z,96957.28
2022-11-23T10:30:54.962Z,96953.28
2022-11-23T10:33:31.494Z,96949.28
2022-11-23T10:36:00.654Z,96946.75
2022-11-23T10:38:30.039Z,96932.81
2022-11-23T10:41:06.236Z,96938.97
2022-11-23T10:43:45.472Z,96937.47
2022-11-23T10:46:32.629Z,96939.50
2022-11-23T10:49:19.235Z,96949.19
2022-11-23T10:51:57.483Z,96940.41
2022-11-23T10:54:32.010Z,96937.66
2022-11-23T10:57:04.042Z,96938.88
2022-11-23T10:59:40.046Z,96933.03
2022-11-23T11:02:22.763Z,96934.25
2022-11-23T11:05:13.112Z,96933.81
2022-11-23T11:07:42.709Z,96945.31
2022-11-23T11:10:47.000Z,96941.59
2022-11-23T11:13:29.868Z,96942.75
2022-11-23T11:16:03.332Z,96942.59
2022-11-23T11:18:34.995Z,96936.91
2022-11-23T11:21:08.158Z,96941.50
2022-11-23T11:23:41.924Z,96943.22
2022-11-23T11:26:20.862Z,96944.72
2022-11-23T11:28:52.603Z,96947.47
2022-11-23T11:31:54.411Z,96948.31
2022-11-23T11:34:27.846Z,96948.91
2022-11-23T11:37:05.402Z,96949.53
2022-11-23T11:39:43.090Z,96950.94
2022-11-23T11:42:21.226Z,96949.88
2022-11-23T11:44:54.178Z,96945.34
2022-11-23T11:47:32.049Z,96945.81
2022-11-23T11:50:09.731Z,96940.13
2022-11-23T11:52:43.579Z,96933.13
2022-11-23T11:55:19.918Z,96942.94
2022-11-23T11:57:52.065Z,96942.84
2022-11-23T12:00:22.407Z,96940.47
2022-11-23T12:03:05.456Z,96939.13
2022-11-23T12:05:43.428Z,96938.63
2022-11-23T12:08:16.603Z,96940.69
2022-11-23T12:10:51.591Z,96942.63
2022-11-23T12:13:23.664Z,96943.50
2022-11-23T12:16:06.603Z,96940.34
2022-11-23T12:19:04.944Z,96940.19
2022-11-23T12:22:08.717Z,96934.69
2022-11-23T12:25:11.680Z,96933.66
2022-11-23T12:27:57.383Z,96935.84
2022-11-23T12:30:35.858Z,96928.38
2022-11-23T12:33:31.893Z,96934.16
2022-11-23T12:36:31.298Z,96931.03
2022-11-23T12:39:17.248Z,96935.72
2022-11-23T12:41:55.261Z,96935.94
2022-11-23T12:45:01.331Z,96943.53
2022-11-23T12:47:46.452Z,96945.38
2022-11-23T12:50:28.811Z,96949.41
2022-11-23T12:53:14.473Z,96946.97
2022-11-23T12:55:55.371Z,96946.88
2022-11-23T12:58:29.038Z,96953.91
2022-11-23T13:01:02.512Z,96949.59
2022-11-23T13:04:32.184Z,96951.00
2022-11-23T13:07:43.522Z,96944.41
2022-11-23T13:10:37.026Z,96946.59
2022-11-23T13:13:36.808Z,96948.34
2022-11-23T13:16:26.994Z,96950.72
2022-11-23T13:19:11.822Z,96953.25
2022-11-23T13:21:43.018Z,96946.06
2022-11-23T13:24:30.248Z,96952.66
2022-11-23T13:27:43.328Z,96953.63
2022-11-23T13:30:45.636Z,96952.94
2022-11-23T13:33:38.533Z,96959.06
2022-11-23T13:36:18.336Z,96955.72
2022-11-23T13:38:48.999Z,96954.31
2022-11-23T13:42:01.550Z,96956.06
2022-11-23T13:44:33.586Z,96952.22
2022-11-23T13:47:22.720Z,96953.16
2022-11-23T13:49:53.552Z,96950.38
2022-11-23T13:52:30.306Z,96952.38
2022-11-23T13:55:10.064Z,96951.59
2022-11-23T13:57:41.143Z,96950.09
2022-11-23T14:00:51.356Z,96950.28
2022-11-23T14:03:57.387Z,96943.25
2022-11-23T14:06:48.750Z,96951.38
2022-11-23T14:09:27.244Z,96950.78
2022-11-23T14:12:09.251Z,96952.28
2022-11-23T14:14:52.132Z,96963.38
2022-11-23T14:18:05.011Z,96971.63
2022-11-23T14:20:53.674Z,96960.94
2022-11-23T14:24:08.860Z,96968.25
2022-11-23T14:26:53.406Z,96967.72
2022-11-23T14:29:40.803Z,96976.03
2022-11-23T14:32:32.592Z,96973.13
2022-11-23T14:35:25.923Z,96981.16
2022-11-23T14:38:41.260Z,96986.91
2022-11-23T14:41:22.034Z,96990.25
2022-11-23T14:43:53.423Z,96990.31
2022-11-23T14:46:25.733Z,96984.78
2022-11-23T14:49:06.893Z,96992.88
2022-11-23T14:51:42.777Z,96987.44
2022-11-23T14:54:13.128Z,96992.75
2022-11-23T14:56:46.288Z,96990.03
2022-11-23T14:59:24.652Z,96993.72
2022-11-23T15:01:57.559Z,96991.72
2022-11-23T15:04:34.599Z,96994.56
2022-11-23T15:07:12.703Z,97001.28
2022-11-23T15:09:51.172Z,97009.44
2022-11-23T15:12:27.071Z,96999.44
2022-11-23T15:14:58.576Z,96997.97
2022-11-23T15:17:28.290Z,96996.47
2022-11-23T15:19:59.263Z,96997.22
2022-11-23T15:22:31.354Z,97005.88
2022-11-23T15:25:08.321Z,97006.56
2022-11-23T15:27:45.285Z,97010.50
2022-11-23T15:30:21.039Z,97008.28
2022-11-23T15:33:01.855Z,97010.06
2022-11-23T15:35:40.071Z,97010.84
2022-11-23T15:38:22.076Z,97012.19
2022-11-23T15:40:53.055Z,97017.31
2022-11-23T15:43:22.557Z,97025.31
2022-11-23T15:46:07.660Z,97025.91
2022-11-23T15:48:39.171Z,97026.81
2022-11-23T15:51:22.639Z,97022.53
2022-11-23T15:53:55.204Z,97026.63
2022-11-23T15:56:31.731Z,97023.47
2022-11-23T15:59:03.743Z,97025.53
2022-11-23T16:01:39.585Z,97037.94
2022-11-23T16:04:28.764Z,97030.78
2022-11-23T16:06:58.274Z,97031.63
2022-11-23T16:09:57.159Z,97027.69
2022-11-23T16:12:29.618Z,97033.34
2022-11-23T16:15:00.634Z,97033.34
2022-11-23T16:17:30.735Z,97038.19
2022-11-23T16:20:04.096Z,97039.38
2022-11-23T16:22:37.349Z,97037.38
2022-11-23T16:25:19.229Z,97039.06
2022-11-23T16:27:48.547Z,97039.91
2022-11-23T16:30:25.599Z,97039.91
2022-11-23T16:32:55.116Z,97046.31
2022-11-23T16:35:24.171Z,97047.13
2022-11-23T16:37:53.636Z,97050.34
2022-11-23T16:40:24.193Z,97054.34
2022-11-23T16:42:54.532Z,97056.69
2022-11-23T16:45:23.863Z,97058.22
2022-11-23T16:47:55.742Z,97060.63
2022-11-23T16:50:25.700Z,97064.63
2022-11-23T16:52:55.092Z,97066.25
2022-11-23T16:55:26.910Z,97059.09
2022-11-23T16:57:57.131Z,97063.06
2022-11-23T17:00:27.024Z,97060.69
2022-11-23T17:02:56.341Z,97060.69
2022-11-23T17:05:25.708Z,97072.16
2022-11-23T17:07:55.010Z,97060.69
2022-11-23T17:10:25.634Z,97069.88
2022-11-23T17:12:56.977Z,97072.75
2022-11-23T17:15:26.330Z,97069.56
2022-11-23T17:17:56.624Z,97075.59
2022-11-23T17:20:25.859Z,97065.69
2022-11-23T17:23:00.458Z,97080.91
2022-11-23T17:25:31.134Z,97074.59
2022-11-23T17:28:01.525Z,97080.97
2022-11-23T17:30:31.488Z,97076.69
2022-11-23T17:33:01.204Z,97081.09
2022-11-23T17:35:35.366Z,97076.38
2022-11-23T17:38:15.822Z,97082.38
2022-11-23T17:40:47.037Z,97079.63
2022-11-23T17:43:16.660Z,97082.00
2022-11-23T17:45:47.184Z,97089.97
2022-11-23T17:48:18.198Z,97084.44
2022-11-23T17:50:48.031Z,97090.03
2022-11-23T17:53:21.264Z,97086.03
2022-11-23T17:55:54.635Z,97091.47
2022-11-23T17:58:23.711Z,97090.53
2022-11-23T18:00:52.792Z,97086.84
2022-11-23T18:03:21.978Z,97082.47
2022-11-23T18:05:51.303Z,97084.34
2022-11-23T18:08:20.555Z,97086.28
2022-11-23T18:10:49.707Z,97088.75
2022-11-23T18:13:20.544Z,97095.03
2022-11-23T18:15:49.999Z,97095.94
2022-11-23T18:18:19.301Z,97100.69
2022-11-23T18:20:49.153Z,97095.53
2022-11-23T18:23:18.286Z,97101.56
2022-11-23T18:25:47.828Z,97100.00
2022-11-23T18:28:18.839Z,97100.84
2022-11-23T18:30:49.326Z,97104.84
2022-11-23T18:33:18.588Z,97112.75
2022-11-23T18:35:47.788Z,97107.97
2022-11-23T18:38:17.591Z,97107.19
2022-11-23T18:40:48.839Z,97121.56
2022-11-23T18:43:18.662Z,97115.13
2022-11-23T18:45:49.689Z,97114.78
2022-11-23T18:48:19.132Z,97117.66
2022-11-23T18:50:48.539Z,97123.25
2022-11-23T18:53:18.735Z,97126.06
2022-11-23T18:55:48.365Z,97130.84
2022-11-23T18:58:19.105Z,97124.16
2022-11-23T19:00:51.644Z,97133.31
2022-11-23T19:03:21.182Z,97139.28
2022-11-23T19:05:50.559Z,97134.06
2022-11-23T19:08:20.111Z,97147.16
2022-11-23T19:10:49.432Z,97140.00
2022-11-23T19:13:19.064Z,97152.75
2022-11-23T19:15:48.948Z,97152.00
2022-11-23T19:18:22.004Z,97154.78
2022-11-23T19:20:51.576Z,97163.91
2022-11-23T19:23:21.893Z,97163.06
2022-11-23T19:25:52.296Z,97163.03
2022-11-23T19:28:21.871Z,97166.25
2022-11-23T19:30:51.849Z,97166.69
2022-11-23T19:33:22.712Z,97169.81
2022-11-23T19:35:53.070Z,97169.03
2022-11-23T19:38:22.718Z,97171.03
2022-11-23T19:40:56.001Z,97170.28
2022-11-23T19:43:25.583Z,97173.78
2022-11-23T19:45:55.965Z,97173.38
2022-11-23T19:48:26.974Z,97174.97
2022-11-23T19:50:57.702Z,97179.38
2022-11-23T19:53:30.740Z,97175.78
2022-11-23T19:56:04.286Z,97185.34
2022-11-23T19:58:34.619Z,97186.91
2022-11-23T20:01:07.064Z,97190.91
2022-11-23T20:03:39.114Z,97184.94
2022-11-23T20:06:12.394Z,97185.72
2022-11-23T20:08:41.603Z,97184.47
2022-11-23T20:11:12.904Z,97189.25
2022-11-23T20:13:43.501Z,97181.28
2022-11-23T20:16:15.670Z,97184.09
2022-11-23T20:18:49.327Z,97183.34
2022-11-23T20:21:20.928Z,97184.19
2022-11-23T20:23:50.697Z,97190.16
2022-11-23T20:26:19.813Z,97180.63
2022-11-23T20:28:52.725Z,97179.84
2022-11-23T20:31:24.395Z,97184.63
2022-11-23T20:33:55.579Z,97183.84
2022-11-23T20:36:27.363Z,97181.50
2022-11-23T20:38:57.447Z,97177.94
2022-11-23T20:41:28.824Z,97172.00
2022-11-23T20:44:00.936Z,97175.97
2022-11-23T20:47:00.058Z,97173.59
2022-11-23T20:49:22.605Z,97178.00
2022-11-23T20:51:51.661Z,97188.72
2022-11-23T20:54:20.880Z,97192.72
2022-11-23T20:56:50.091Z,97185.56
2022-11-23T20:59:19.924Z,97198.28
2022-11-23T21:01:49.135Z,97196.69
2022-11-23T21:04:18.275Z,97202.25
2022-11-23T21:06:48.856Z,97206.22
2022-11-23T21:09:18.234Z,97202.25
2022-11-23T21:12:04.736Z,97201.84
2022-11-23T21:14:34.283Z,97209.41
2022-11-23T21:17:03.679Z,97214.97
2022-11-23T21:19:35.037Z,97212.59
2022-11-23T21:22:08.228Z,97214.97
2022-11-23T21:24:37.871Z,97222.06
2022-11-23T21:27:12.175Z,97216.09
2022-11-23T21:29:44.089Z,97221.25
2022-11-23T21:32:14.935Z,97220.06
2022-11-23T21:34:44.505Z,97221.28
2022-11-23T21:37:14.959Z,97216.56
2022-11-23T21:39:49.446Z,97221.72
2022-11-23T21:42:21.718Z,97230.84
2022-11-23T21:44:50.975Z,97246.31
2022-11-23T21:47:20.178Z,97239.53
2022-11-23T21:49:49.500Z,97243.53
2022-11-23T21:52:19.952Z,97245.13
2022-11-23T21:54:49.339Z,97246.72
2022-11-23T21:57:18.529Z,97256.63
2022-11-23T21:59:47.594Z,97245.13
2022-11-23T22:02:16.753Z,97246.72
2022-11-23T22:04:45.939Z,97247.50
2022-11-23T22:07:15.210Z,97257.03
2022-11-23T22:09:45.785Z,97253.06
2022-11-23T22:12:14.860Z,97262.16
2022-11-23T22:14:43.890Z,97258.56
2022-11-23T22:17:12.969Z,97255.41
2022-11-23T22:19:42.278Z,97256.22
2022-11-23T22:22:11.389Z,97259.38
2022-11-23T22:24:40.496Z,97258.56
2022-11-23T22:27:11.233Z,97253.41
2022-11-23T22:29:40.408Z,97256.19
2022-11-23T22:32:09.527Z,97263.25
2022-11-23T22:34:39.969Z,97267.97
2022-11-23T22:37:10.931Z,97271.25
2022-11-23T22:39:40.198Z,97266.13
2022-11-23T22:42:10.787Z,97269.72
2022-11-23T22:44:39.826Z,97273.72
2022-11-23T22:47:08.998Z,97276.88
2022-11-23T22:49:38.255Z,97279.25
2022-11-23T22:52:07.383Z,97273.72
2022-11-23T22:54:36.686Z,97274.53
2022-11-23T22:57:05.981Z,97280.06
2022-11-23T22:59:36.544Z,97284.47
2022-11-23T23:02:05.695Z,97288.03
2022-11-23T23:04:35.068Z,97299.56
2022-11-23T23:07:04.557Z,97293.59
2022-11-23T23:09:33.729Z,97302.38
2022-11-23T23:12:03.238Z,97307.91
2022-11-23T23:14:32.665Z,97303.94
2022-11-23T23:17:03.523Z,97302.75
2022-11-23T23:19:32.734Z,97318.25
2022-11-23T23:22:01.810Z,97308.72
2022-11-23T23:24:31.140Z,97307.16
2022-11-23T23:27:00.604Z,97307.94
2022-11-23T23:29:29.836Z,97315.06
2022-11-23T23:31:58.918Z,97318.25
2022-11-23T23:34:29.415Z,97314.28
2022-11-23T23:36:58.492Z,97322.25
2022-11-23T23:39:27.988Z,97319.84
2022-11-23T23:41:57.048Z,97319.84
2022-11-23T23:44:26.060Z,97320.66
2022-11-23T23:46:55.275Z,97320.66
2022-11-23T23:49:24.574Z,97329.38
2022-11-23T23:51:55.009Z,97328.59
2022-11-23T23:54:24.197Z,97327.78
2022-11-23T23:56:53.350Z,97323.44
2022-11-23T23:59:23.583Z,97330.97
